Floreffe, Pennsylvania
Current Conditions -  °F | °C
As of 1:53 PM on Friday 21 Nov 2014 (Local Time) from KAGC Reporting Station
Broken Clouds Broken Clouds  
Wind Chill: 25°   Ceiling: 4100
Heat Index: 25°   Visibility: 10mi
Dew Point:   Wind: 3mph
Humidity: 43%   Direction: NA
Pressure: 30.43"   Gusts: NA
Location:  40.2958°N, 79.9241°W
Report Text: KAGC 211853Z VRB03KT 10SM BKN041 M04/M15 A3043 RMK AO2 SLP329 T10391150
Loading
Personal Weather Stations






























Interactive Weather Map New forecast layout! Learn more

10-Day Weather Forecast

Advertisements
Track Severe Weather on mobile